sensor_id;sensor_type;location;lat;lon;timestamp;temperature;humidity
21255;DHT22;10785;50.674;17.954;2023-11-19T00:02:06;0.80;99.90
21255;DHT22;10785;50.674;17.954;2023-11-19T00:04:50;0.80;99.90
21255;DHT22;10785;50.674;17.954;2023-11-19T00:07:34;0.80;99.90
21255;DHT22;10785;50.674;17.954;2023-11-19T00:10:24;0.70;99.90
21255;DHT22;10785;50.674;17.954;2023-11-19T00:13:06;0.70;99.90
21255;DHT22;10785;50.674;17.954;2023-11-19T00:15:49;0.70;99.90
21255;DHT22;10785;50.674;17.954;2023-11-19T00:18:34;0.60;99.90
21255;DHT22;10785;50.674;17.954;2023-11-19T00:21:24;0.60;99.90
21255;DHT22;10785;50.674;17.954;2023-11-19T00:24:12;0.60;99.90
21255;DHT22;10785;50.674;17.954;2023-11-19T00:27:00;0.60;99.90
21255;DHT22;10785;50.674;17.954;2023-11-19T00:29:52;0.60;99.90
21255;DHT22;10785;50.674;17.954;2023-11-19T00:32:40;0.50;99.90
21255;DHT22;10785;50.674;17.954;2023-11-19T00:35:24;0.50;99.90
21255;DHT22;10785;50.674;17.954;2023-11-19T00:38:16;0.50;99.90
21255;DHT22;10785;50.674;17.954;2023-11-19T00:41:05;0.50;99.90
21255;DHT22;10785;50.674;17.954;2023-11-19T00:43:59;0.50;99.90
21255;DHT22;10785;50.674;17.954;2023-11-19T00:46:41;0.50;99.90
21255;DHT22;10785;50.674;17.954;2023-11-19T00:49:29;0.50;99.90
21255;DHT22;10785;50.674;17.954;2023-11-19T00:52:15;0.50;99.90
21255;DHT22;10785;50.674;17.954;2023-11-19T00:55:14;0.50;99.90
21255;DHT22;10785;50.674;17.954;2023-11-19T00:57:55;0.50;99.90
21255;DHT22;10785;50.674;17.954;2023-11-19T01:00:45;0.40;99.90
21255;DHT22;10785;50.674;17.954;2023-11-19T01:03:40;0.40;99.90
21255;DHT22;10785;50.674;17.954;2023-11-19T01:06:28;0.30;99.90
21255;DHT22;10785;50.674;17.954;2023-11-19T01:09:16;0.30;99.90
21255;DHT22;10785;50.674;17.954;2023-11-19T01:12:11;0.30;99.90
21255;DHT22;10785;50.674;17.954;2023-11-19T01:15:00;0.30;99.90
21255;DHT22;10785;50.674;17.954;2023-11-19T01:17:48;0.20;99.90
21255;DHT22;10785;50.674;17.954;2023-11-19T01:20:31;0.20;99.90
21255;DHT22;10785;50.674;17.954;2023-11-19T01:23:18;0.20;99.90
21255;DHT22;10785;50.674;17.954;2023-11-19T01:26:07;0.10;99.90
21255;DHT22;10785;50.674;17.954;2023-11-19T01:28:55;0.10;99.90
21255;DHT22;10785;50.674;17.954;2023-11-19T01:31:46;0.10;99.90
21255;DHT22;10785;50.674;17.954;2023-11-19T01:34:38;0.10;99.90
21255;DHT22;10785;50.674;17.954;2023-11-19T01:37:23;0.00;99.90
21255;DHT22;10785;50.674;17.954;2023-11-19T01:40:12;0.00;99.90
21255;DHT22;10785;50.674;17.954;2023-11-19T01:42:54;0.00;99.90
21255;DHT22;10785;50.674;17.954;2023-11-19T01:45:44;0.00;99.90
21255;DHT22;10785;50.674;17.954;2023-11-19T01:48:27;-0.10;99.90
21255;DHT22;10785;50.674;17.954;2023-11-19T01:51:09;0.00;99.90
21255;DHT22;10785;50.674;17.954;2023-11-19T01:53:55;0.00;99.90
21255;DHT22;10785;50.674;17.954;2023-11-19T01:56:46;-0.10;99.90
21255;DHT22;10785;50.674;17.954;2023-11-19T01:59:26;-0.10;99.90
21255;DHT22;10785;50.674;17.954;2023-11-19T02:02:20;-0.10;99.90
21255;DHT22;10785;50.674;17.954;2023-11-19T02:05:05;-0.20;99.90
21255;DHT22;10785;50.674;17.954;2023-11-19T02:07:48;-0.20;99.90
21255;DHT22;10785;50.674;17.954;2023-11-19T02:10:32;-0.20;99.90
21255;DHT22;10785;50.674;17.954;2023-11-19T02:13:15;-0.20;99.90
21255;DHT22;10785;50.674;17.954;2023-11-19T02:16:00;-0.20;99.90
21255;DHT22;10785;50.674;17.954;2023-11-19T02:18:39;-0.10;99.90
21255;DHT22;10785;50.674;17.954;2023-11-19T02:21:12;-0.10;99.90
21255;DHT22;10785;50.674;17.954;2023-11-19T02:23:50;-0.10;99.90
21255;DHT22;10785;50.674;17.954;2023-11-19T02:26:49;-0.20;99.90
21255;DHT22;10785;50.674;17.954;2023-11-19T02:29:46;-0.20;99.90
21255;DHT22;10785;50.674;17.954;2023-11-19T02:32:28;-0.10;99.90
21255;DHT22;10785;50.674;17.954;2023-11-19T02:35:18;-0.10;99.90
21255;DHT22;10785;50.674;17.954;2023-11-19T02:38:01;-0.10;99.90
21255;DHT22;10785;50.674;17.954;2023-11-19T02:40:48;-0.10;99.90
21255;DHT22;10785;50.674;17.954;2023-11-19T02:43:44;-0.10;99.90
21255;DHT22;10785;50.674;17.954;2023-11-19T02:46:30;-0.10;99.90
21255;DHT22;10785;50.674;17.954;2023-11-19T02:49:14;-0.10;99.90
21255;DHT22;10785;50.674;17.954;2023-11-19T02:52:05;-0.10;99.90
21255;DHT22;10785;50.674;17.954;2023-11-19T02:54:54;0.00;99.90
21255;DHT22;10785;50.674;17.954;2023-11-19T02:57:43;0.00;99.90
21255;DHT22;10785;50.674;17.954;2023-11-19T03:00:30;0.00;99.90
21255;DHT22;10785;50.674;17.954;2023-11-19T03:03:32;0.00;99.90
21255;DHT22;10785;50.674;17.954;2023-11-19T03:09:15;0.00;99.90
21255;DHT22;10785;50.674;17.954;2023-11-19T03:12:05;0.00;99.90
21255;DHT22;10785;50.674;17.954;2023-11-19T03:14:44;0.00;99.90
21255;DHT22;10785;50.674;17.954;2023-11-19T03:17:37;0.10;99.90
21255;DHT22;10785;50.674;17.954;2023-11-19T03:20:27;0.10;99.90
21255;DHT22;10785;50.674;17.954;2023-11-19T03:23:17;0.20;99.90
21255;DHT22;10785;50.674;17.954;2023-11-19T03:25:59;0.30;99.90
21255;DHT22;10785;50.674;17.954;2023-11-19T03:28:42;0.30;99.90
21255;DHT22;10785;50.674;17.954;2023-11-19T03:31:29;0.30;99.90
21255;DHT22;10785;50.674;17.954;2023-11-19T03:34:11;0.30;99.90
21255;DHT22;10785;50.674;17.954;2023-11-19T03:37:03;0.30;99.90
21255;DHT22;10785;50.674;17.954;2023-11-19T03:39:49;0.30;99.90
21255;DHT22;10785;50.674;17.954;2023-11-19T03:42:41;0.30;99.90
21255;DHT22;10785;50.674;17.954;2023-11-19T03:45:29;0.30;99.90
21255;DHT22;10785;50.674;17.954;2023-11-19T03:48:14;0.30;99.90
21255;DHT22;10785;50.674;17.954;2023-11-19T03:51:09;0.30;99.90
21255;DHT22;10785;50.674;17.954;2023-11-19T03:54:02;0.30;99.90
21255;DHT22;10785;50.674;17.954;2023-11-19T03:56:49;0.30;99.90
21255;DHT22;10785;50.674;17.954;2023-11-19T03:59:41;0.30;99.90
21255;DHT22;10785;50.674;17.954;2023-11-19T04:02:19;0.30;99.90
21255;DHT22;10785;50.674;17.954;2023-11-19T04:04:50;0.30;99.90
21255;DHT22;10785;50.674;17.954;2023-11-19T04:07:25;0.30;99.90
21255;DHT22;10785;50.674;17.954;2023-11-19T04:10:17;0.30;99.90
21255;DHT22;10785;50.674;17.954;2023-11-19T04:13:14;0.30;99.90
21255;DHT22;10785;50.674;17.954;2023-11-19T04:15:50;0.30;99.90
21255;DHT22;10785;50.674;17.954;2023-11-19T04:18:38;0.30;99.90
21255;DHT22;10785;50.674;17.954;2023-11-19T04:21:17;0.30;99.90
21255;DHT22;10785;50.674;17.954;2023-11-19T04:23:57;0.30;99.90
21255;DHT22;10785;50.674;17.954;2023-11-19T04:26:35;0.30;99.90
21255;DHT22;10785;50.674;17.954;2023-11-19T04:29:16;0.40;99.90
21255;DHT22;10785;50.674;17.954;2023-11-19T04:31:48;0.40;99.90
21255;DHT22;10785;50.674;17.954;2023-11-19T04:34:27;0.40;99.90
21255;DHT22;10785;50.674;17.954;2023-11-19T04:37:11;0.50;99.90
21255;DHT22;10785;50.674;17.954;2023-11-19T04:39:46;0.60;99.90
21255;DHT22;10785;50.674;17.954;2023-11-19T04:42:38;0.60;99.90
21255;DHT22;10785;50.674;17.954;2023-11-19T04:45:23;0.70;99.90
21255;DHT22;10785;50.674;17.954;2023-11-19T04:48:15;0.70;99.90
21255;DHT22;10785;50.674;17.954;2023-11-19T04:51:04;0.80;99.90
21255;DHT22;10785;50.674;17.954;2023-11-19T04:53:48;0.80;99.90
21255;DHT22;10785;50.674;17.954;2023-11-19T04:56:34;0.80;99.90
21255;DHT22;10785;50.674;17.954;2023-11-19T04:59:17;0.90;99.90
21255;DHT22;10785;50.674;17.954;2023-11-19T05:01:50;0.90;99.90
21255;DHT22;10785;50.674;17.954;2023-11-19T05:04:42;1.00;99.90
21255;DHT22;10785;50.674;17.954;2023-11-19T05:07:26;1.00;99.90
21255;DHT22;10785;50.674;17.954;2023-11-19T05:10:07;1.10;99.90
21255;DHT22;10785;50.674;17.954;2023-11-19T05:12:45;1.10;99.90
21255;DHT22;10785;50.674;17.954;2023-11-19T05:15:30;1.20;99.90
21255;DHT22;10785;50.674;17.954;2023-11-19T05:18:20;1.20;99.90
21255;DHT22;10785;50.674;17.954;2023-11-19T05:21:00;1.20;99.90
21255;DHT22;10785;50.674;17.954;2023-11-19T05:23:46;1.30;99.90
21255;DHT22;10785;50.674;17.954;2023-11-19T05:26:30;1.30;99.90
21255;DHT22;10785;50.674;17.954;2023-11-19T05:29:16;1.30;99.90
21255;DHT22;10785;50.674;17.954;2023-11-19T05:32:08;1.40;99.90
21255;DHT22;10785;50.674;17.954;2023-11-19T05:34:56;1.40;99.90
21255;DHT22;10785;50.674;17.954;2023-11-19T05:37:49;1.50;99.90
21255;DHT22;10785;50.674;17.954;2023-11-19T05:40:37;1.50;99.90
21255;DHT22;10785;50.674;17.954;2023-11-19T05:43:26;1.50;99.90
21255;DHT22;10785;50.674;17.954;2023-11-19T05:46:07;1.50;99.90
21255;DHT22;10785;50.674;17.954;2023-11-19T05:49:00;1.60;99.90
21255;DHT22;10785;50.674;17.954;2023-11-19T05:51:55;1.50;99.90
21255;DHT22;10785;50.674;17.954;2023-11-19T05:54:46;1.60;99.90
21255;DHT22;10785;50.674;17.954;2023-11-19T05:57:34;1.60;99.90
21255;DHT22;10785;50.674;17.954;2023-11-19T06:00:29;1.60;99.90
21255;DHT22;10785;50.674;17.954;2023-11-19T06:03:09;1.60;99.90
21255;DHT22;10785;50.674;17.954;2023-11-19T06:05:50;1.60;99.90
21255;DHT22;10785;50.674;17.954;2023-11-19T06:08:30;1.60;99.90
21255;DHT22;10785;50.674;17.954;2023-11-19T06:11:15;1.60;99.90
21255;DHT22;10785;50.674;17.954;2023-11-19T06:14:02;1.60;99.90
21255;DHT22;10785;50.674;17.954;2023-11-19T06:16:47;1.60;99.90
21255;DHT22;10785;50.674;17.954;2023-11-19T06:19:30;1.60;99.90
21255;DHT22;10785;50.674;17.954;2023-11-19T06:22:07;1.70;99.90
21255;DHT22;10785;50.674;17.954;2023-11-19T06:24:44;1.70;99.90
21255;DHT22;10785;50.674;17.954;2023-11-19T06:27:20;1.70;99.90
21255;DHT22;10785;50.674;17.954;2023-11-19T06:29:52;1.70;99.90
21255;DHT22;10785;50.674;17.954;2023-11-19T06:32:28;1.80;99.90
21255;DHT22;10785;50.674;17.954;2023-11-19T06:35:13;1.80;99.90
21255;DHT22;10785;50.674;17.954;2023-11-19T06:37:55;1.80;99.90
21255;DHT22;10785;50.674;17.954;2023-11-19T06:40:46;1.80;99.90
21255;DHT22;10785;50.674;17.954;2023-11-19T06:43:27;1.80;99.90
21255;DHT22;10785;50.674;17.954;2023-11-19T06:46:16;1.90;99.90
21255;DHT22;10785;50.674;17.954;2023-11-19T06:49:07;1.90;99.90
21255;DHT22;10785;50.674;17.954;2023-11-19T06:51:53;1.90;99.90
21255;DHT22;10785;50.674;17.954;2023-11-19T06:54:38;2.00;99.90
21255;DHT22;10785;50.674;17.954;2023-11-19T06:57:12;2.10;99.90
21255;DHT22;10785;50.674;17.954;2023-11-19T06:59:59;2.10;99.90
21255;DHT22;10785;50.674;17.954;2023-11-19T07:02:34;2.20;99.90
21255;DHT22;10785;50.674;17.954;2023-11-19T07:05:16;2.20;99.90
21255;DHT22;10785;50.674;17.954;2023-11-19T07:08:06;2.30;99.90
21255;DHT22;10785;50.674;17.954;2023-11-19T07:10:55;2.30;99.90
21255;DHT22;10785;50.674;17.954;2023-11-19T07:13:40;2.30;99.90
21255;DHT22;10785;50.674;17.954;2023-11-19T07:16:26;2.30;99.90
21255;DHT22;10785;50.674;17.954;2023-11-19T07:19:14;2.40;99.90
21255;DHT22;10785;50.674;17.954;2023-11-19T07:22:01;2.40;99.90
21255;DHT22;10785;50.674;17.954;2023-11-19T07:24:36;2.40;99.90
21255;DHT22;10785;50.674;17.954;2023-11-19T07:27:09;2.50;99.90
21255;DHT22;10785;50.674;17.954;2023-11-19T07:29:46;2.50;99.90
21255;DHT22;10785;50.674;17.954;2023-11-19T07:32:26;2.60;99.90
21255;DHT22;10785;50.674;17.954;2023-11-19T07:34:59;2.60;99.90
21255;DHT22;10785;50.674;17.954;2023-11-19T07:37:32;2.60;99.90
21255;DHT22;10785;50.674;17.954;2023-11-19T07:40:03;2.60;99.90
21255;DHT22;10785;50.674;17.954;2023-11-19T07:42:34;2.60;99.90
21255;DHT22;10785;50.674;17.954;2023-11-19T07:45:09;2.70;99.90
21255;DHT22;10785;50.674;17.954;2023-11-19T07:47:43;2.70;99.90
21255;DHT22;10785;50.674;17.954;2023-11-19T07:50:24;2.80;99.90
21255;DHT22;10785;50.674;17.954;2023-11-19T07:53:00;2.80;99.90
21255;DHT22;10785;50.674;17.954;2023-11-19T07:55:42;2.90;99.90
21255;DHT22;10785;50.674;17.954;2023-11-19T07:58:19;2.90;99.90
21255;DHT22;10785;50.674;17.954;2023-11-19T08:00:51;2.90;99.90
21255;DHT22;10785;50.674;17.954;2023-11-19T08:03:25;2.90;99.90
21255;DHT22;10785;50.674;17.954;2023-11-19T08:06:03;3.00;99.90
21255;DHT22;10785;50.674;17.954;2023-11-19T08:08:57;3.00;99.90
21255;DHT22;10785;50.674;17.954;2023-11-19T08:11:38;3.00;99.90
21255;DHT22;10785;50.674;17.954;2023-11-19T08:14:16;3.00;99.90
21255;DHT22;10785;50.674;17.954;2023-11-19T08:16:50;3.00;99.90
21255;DHT22;10785;50.674;17.954;2023-11-19T08:19:23;3.00;99.90
21255;DHT22;10785;50.674;17.954;2023-11-19T08:22:01;3.00;99.90
21255;DHT22;10785;50.674;17.954;2023-11-19T08:24:43;3.10;99.90
21255;DHT22;10785;50.674;17.954;2023-11-19T08:27:25;3.10;99.90
21255;DHT22;10785;50.674;17.954;2023-11-19T08:30:08;3.10;99.90
21255;DHT22;10785;50.674;17.954;2023-11-19T08:32:45;3.20;99.90
21255;DHT22;10785;50.674;17.954;2023-11-19T08:35:25;3.30;99.90
21255;DHT22;10785;50.674;17.954;2023-11-19T08:38:07;3.30;99.90
21255;DHT22;10785;50.674;17.954;2023-11-19T08:41:01;3.30;99.90
21255;DHT22;10785;50.674;17.954;2023-11-19T08:43:38;3.30;99.90
21255;DHT22;10785;50.674;17.954;2023-11-19T08:46:17;3.40;99.90
21255;DHT22;10785;50.674;17.954;2023-11-19T08:48:58;3.40;99.90
21255;DHT22;10785;50.674;17.954;2023-11-19T08:51:42;3.40;99.90
21255;DHT22;10785;50.674;17.954;2023-11-19T08:54:21;3.50;99.90
21255;DHT22;10785;50.674;17.954;2023-11-19T08:57:02;3.50;99.90
21255;DHT22;10785;50.674;17.954;2023-11-19T08:59:50;3.50;99.90
21255;DHT22;10785;50.674;17.954;2023-11-19T09:02:37;3.60;72.50
21255;DHT22;10785;50.674;17.954;2023-11-19T09:05:16;3.60;19.10
21255;DHT22;10785;50.674;17.954;2023-11-19T09:07:57;3.70;1.00
21255;DHT22;10785;50.674;17.954;2023-11-19T09:10:37;3.70;1.00
21255;DHT22;10785;50.674;17.954;2023-11-19T09:13:16;3.70;1.00
21255;DHT22;10785;50.674;17.954;2023-11-19T09:16:02;3.80;1.00
21255;DHT22;10785;50.674;17.954;2023-11-19T09:18:45;3.70;8.00
21255;DHT22;10785;50.674;17.954;2023-11-19T09:21:24;3.70;21.90
21255;DHT22;10785;50.674;17.954;2023-11-19T09:24:06;3.60;88.20
21255;DHT22;10785;50.674;17.954;2023-11-19T09:26:48;3.60;93.10
21255;DHT22;10785;50.674;17.954;2023-11-19T09:29:26;3.60;99.90
21255;DHT22;10785;50.674;17.954;2023-11-19T09:32:05;3.60;99.90
21255;DHT22;10785;50.674;17.954;2023-11-19T09:34:56;3.50;99.90
21255;DHT22;10785;50.674;17.954;2023-11-19T09:37:44;3.40;99.90
21255;DHT22;10785;50.674;17.954;2023-11-19T09:40:33;3.40;99.90
21255;DHT22;10785;50.674;17.954;2023-11-19T09:43:22;3.40;99.90
21255;DHT22;10785;50.674;17.954;2023-11-19T09:46:17;3.30;99.90
21255;DHT22;10785;50.674;17.954;2023-11-19T09:49:16;3.20;99.90
21255;DHT22;10785;50.674;17.954;2023-11-19T09:52:16;3.10;99.90
21255;DHT22;10785;50.674;17.954;2023-11-19T09:54:52;3.10;99.90
21255;DHT22;10785;50.674;17.954;2023-11-19T09:57:35;3.00;99.90
21255;DHT22;10785;50.674;17.954;2023-11-19T10:00:15;2.90;99.90
21255;DHT22;10785;50.674;17.954;2023-11-19T10:02:51;3.00;99.90
21255;DHT22;10785;50.674;17.954;2023-11-19T10:05:26;2.90;99.90
21255;DHT22;10785;50.674;17.954;2023-11-19T10:08:07;2.90;99.90
21255;DHT22;10785;50.674;17.954;2023-11-19T10:10:44;2.90;99.90
21255;DHT22;10785;50.674;17.954;2023-11-19T10:13:17;2.90;99.90
21255;DHT22;10785;50.674;17.954;2023-11-19T10:15:50;3.00;99.90
21255;DHT22;10785;50.674;17.954;2023-11-19T10:18:24;3.00;99.90
21255;DHT22;10785;50.674;17.954;2023-11-19T10:21:06;2.90;99.90
21255;DHT22;10785;50.674;17.954;2023-11-19T10:23:55;2.90;99.90
21255;DHT22;10785;50.674;17.954;2023-11-19T10:26:40;2.90;99.90
21255;DHT22;10785;50.674;17.954;2023-11-19T10:29:14;2.90;99.90
21255;DHT22;10785;50.674;17.954;2023-11-19T10:31:57;2.90;99.90
21255;DHT22;10785;50.674;17.954;2023-11-19T10:35:08;2.90;99.90
21255;DHT22;10785;50.674;17.954;2023-11-19T10:37:48;2.90;99.90
21255;DHT22;10785;50.674;17.954;2023-11-19T10:40:37;2.90;99.90
21255;DHT22;10785;50.674;17.954;2023-11-19T10:43:06;2.90;99.90
21255;DHT22;10785;50.674;17.954;2023-11-19T10:45:40;2.90;99.90
21255;DHT22;10785;50.674;17.954;2023-11-19T10:48:27;2.90;99.90
21255;DHT22;10785;50.674;17.954;2023-11-19T10:51:07;2.90;99.90
21255;DHT22;10785;50.674;17.954;2023-11-19T10:53:53;3.00;99.90
21255;DHT22;10785;50.674;17.954;2023-11-19T10:56:35;3.00;99.90
21255;DHT22;10785;50.674;17.954;2023-11-19T10:59:19;3.10;99.90
21255;DHT22;10785;50.674;17.954;2023-11-19T11:02:06;3.20;99.90
21255;DHT22;10785;50.674;17.954;2023-11-19T11:04:51;3.40;99.90
21255;DHT22;10785;50.674;17.954;2023-11-19T11:07:25;3.60;99.90
21255;DHT22;10785;50.674;17.954;2023-11-19T11:10:09;3.70;99.90
21255;DHT22;10785;50.674;17.954;2023-11-19T11:12:47;3.70;99.90
21255;DHT22;10785;50.674;17.954;2023-11-19T11:15:36;3.80;99.90
21255;DHT22;10785;50.674;17.954;2023-11-19T11:18:19;3.80;99.90
21255;DHT22;10785;50.674;17.954;2023-11-19T11:21:02;3.90;99.90
21255;DHT22;10785;50.674;17.954;2023-11-19T11:24:06;4.00;99.90
21255;DHT22;10785;50.674;17.954;2023-11-19T11:26:57;4.10;99.90
21255;DHT22;10785;50.674;17.954;2023-11-19T11:29:39;4.10;99.90
21255;DHT22;10785;50.674;17.954;2023-11-19T11:32:24;4.10;99.90
21255;DHT22;10785;50.674;17.954;2023-11-19T11:35:24;4.00;99.90
21255;DHT22;10785;50.674;17.954;2023-11-19T11:38:06;4.00;99.90
21255;DHT22;10785;50.674;17.954;2023-11-19T11:40:44;4.00;99.90
21255;DHT22;10785;50.674;17.954;2023-11-19T11:44:00;4.00;99.90
21255;DHT22;10785;50.674;17.954;2023-11-19T11:46:55;3.90;99.90
21255;DHT22;10785;50.674;17.954;2023-11-19T11:49:27;4.00;99.90
21255;DHT22;10785;50.674;17.954;2023-11-19T11:52:03;4.00;99.90
21255;DHT22;10785;50.674;17.954;2023-11-19T11:54:34;4.10;99.90
21255;DHT22;10785;50.674;17.954;2023-11-19T11:57:13;4.10;99.90
21255;DHT22;10785;50.674;17.954;2023-11-19T11:59:49;4.10;99.90
21255;DHT22;10785;50.674;17.954;2023-11-19T12:02:26;4.00;99.90
21255;DHT22;10785;50.674;17.954;2023-11-19T12:04:57;4.10;99.90
21255;DHT22;10785;50.674;17.954;2023-11-19T12:07:30;4.00;99.90
21255;DHT22;10785;50.674;17.954;2023-11-19T12:10:07;4.10;99.90
21255;DHT22;10785;50.674;17.954;2023-11-19T12:12:45;4.00;99.90
21255;DHT22;10785;50.674;17.954;2023-11-19T12:15:19;4.00;99.90
21255;DHT22;10785;50.674;17.954;2023-11-19T12:17:54;4.00;99.90
21255;DHT22;10785;50.674;17.954;2023-11-19T12:20:26;4.00;99.90
21255;DHT22;10785;50.674;17.954;2023-11-19T12:23:04;4.00;99.90
21255;DHT22;10785;50.674;17.954;2023-11-19T12:25:35;4.10;99.90
21255;DHT22;10785;50.674;17.954;2023-11-19T12:28:04;4.10;99.90
21255;DHT22;10785;50.674;17.954;2023-11-19T12:30:34;4.10;99.90
21255;DHT22;10785;50.674;17.954;2023-11-19T12:33:10;4.10;99.90
21255;DHT22;10785;50.674;17.954;2023-11-19T12:35:40;4.10;99.90
21255;DHT22;10785;50.674;17.954;2023-11-19T12:38:19;4.20;99.90
21255;DHT22;10785;50.674;17.954;2023-11-19T12:41:02;4.20;99.90
21255;DHT22;10785;50.674;17.954;2023-11-19T12:43:32;4.20;99.90
21255;DHT22;10785;50.674;17.954;2023-11-19T12:46:19;4.10;99.90
21255;DHT22;10785;50.674;17.954;2023-11-19T12:48:50;4.10;99.90
21255;DHT22;10785;50.674;17.954;2023-11-19T12:51:20;4.20;99.90
21255;DHT22;10785;50.674;17.954;2023-11-19T12:53:52;4.20;99.90
21255;DHT22;10785;50.674;17.954;2023-11-19T12:56:22;4.20;99.90
21255;DHT22;10785;50.674;17.954;2023-11-19T12:58:52;4.30;99.90
21255;DHT22;10785;50.674;17.954;2023-11-19T13:01:21;4.30;99.90
21255;DHT22;10785;50.674;17.954;2023-11-19T13:03:52;4.40;99.90
21255;DHT22;10785;50.674;17.954;2023-11-19T13:06:22;4.40;99.90
21255;DHT22;10785;50.674;17.954;2023-11-19T13:08:51;4.50;99.90
21255;DHT22;10785;50.674;17.954;2023-11-19T13:11:32;4.50;99.90
21255;DHT22;10785;50.674;17.954;2023-11-19T13:14:04;4.50;99.90
21255;DHT22;10785;50.674;17.954;2023-11-19T13:16:37;4.50;99.90
21255;DHT22;10785;50.674;17.954;2023-11-19T13:19:09;4.50;99.90
21255;DHT22;10785;50.674;17.954;2023-11-19T13:21:39;4.50;99.90
21255;DHT22;10785;50.674;17.954;2023-11-19T13:24:09;4.50;99.90
21255;DHT22;10785;50.674;17.954;2023-11-19T13:26:39;4.50;99.90
21255;DHT22;10785;50.674;17.954;2023-11-19T13:29:08;4.60;99.90
21255;DHT22;10785;50.674;17.954;2023-11-19T13:31:38;4.60;99.90
21255;DHT22;10785;50.674;17.954;2023-11-19T13:34:09;4.70;99.90
21255;DHT22;10785;50.674;17.954;2023-11-19T13:36:38;4.70;99.90
21255;DHT22;10785;50.674;17.954;2023-11-19T13:39:08;4.80;99.90
21255;DHT22;10785;50.674;17.954;2023-11-19T13:41:38;4.80;99.90
21255;DHT22;10785;50.674;17.954;2023-11-19T13:44:08;4.80;99.90
21255;DHT22;10785;50.674;17.954;2023-11-19T13:46:37;4.90;99.90
21255;DHT22;10785;50.674;17.954;2023-11-19T13:49:07;4.90;99.90
21255;DHT22;10785;50.674;17.954;2023-11-19T13:51:37;4.90;99.90
21255;DHT22;10785;50.674;17.954;2023-11-19T13:54:06;4.90;99.90
21255;DHT22;10785;50.674;17.954;2023-11-19T13:56:35;4.90;99.90
21255;DHT22;10785;50.674;17.954;2023-11-19T13:59:05;4.90;99.90
21255;DHT22;10785;50.674;17.954;2023-11-19T14:01:36;4.90;99.90
21255;DHT22;10785;50.674;17.954;2023-11-19T14:04:06;5.00;99.90
21255;DHT22;10785;50.674;17.954;2023-11-19T14:06:38;5.00;99.90
21255;DHT22;10785;50.674;17.954;2023-11-19T14:09:07;5.00;99.90
21255;DHT22;10785;50.674;17.954;2023-11-19T14:11:37;5.00;99.90
21255;DHT22;10785;50.674;17.954;2023-11-19T14:14:06;5.00;99.90
21255;DHT22;10785;50.674;17.954;2023-11-19T14:16:35;5.00;99.90
21255;DHT22;10785;50.674;17.954;2023-11-19T14:19:05;5.10;99.90
21255;DHT22;10785;50.674;17.954;2023-11-19T14:21:35;5.10;99.90
21255;DHT22;10785;50.674;17.954;2023-11-19T14:24:06;5.10;99.90
21255;DHT22;10785;50.674;17.954;2023-11-19T14:26:36;5.10;99.90
21255;DHT22;10785;50.674;17.954;2023-11-19T14:29:05;5.10;99.90
21255;DHT22;10785;50.674;17.954;2023-11-19T14:31:34;5.10;99.90
21255;DHT22;10785;50.674;17.954;2023-11-19T14:34:04;5.10;99.90
21255;DHT22;10785;50.674;17.954;2023-11-19T14:36:33;5.00;99.90
21255;DHT22;10785;50.674;17.954;2023-11-19T14:39:03;5.00;99.90
21255;DHT22;10785;50.674;17.954;2023-11-19T14:41:35;4.90;99.90
21255;DHT22;10785;50.674;17.954;2023-11-19T14:44:05;5.00;99.90
21255;DHT22;10785;50.674;17.954;2023-11-19T14:46:38;5.00;99.90
21255;DHT22;10785;50.674;17.954;2023-11-19T14:49:07;5.00;99.90
21255;DHT22;10785;50.674;17.954;2023-11-19T14:51:39;5.00;99.90
21255;DHT22;10785;50.674;17.954;2023-11-19T14:54:14;5.00;99.90
21255;DHT22;10785;50.674;17.954;2023-11-19T14:56:58;5.00;99.90
21255;DHT22;10785;50.674;17.954;2023-11-19T14:59:28;5.10;99.90
21255;DHT22;10785;50.674;17.954;2023-11-19T15:02:00;5.00;99.90
21255;DHT22;10785;50.674;17.954;2023-11-19T15:04:37;5.00;99.90
21255;DHT22;10785;50.674;17.954;2023-11-19T15:07:15;5.00;99.90
21255;DHT22;10785;50.674;17.954;2023-11-19T15:09:55;5.00;99.90
21255;DHT22;10785;50.674;17.954;2023-11-19T15:12:30;5.00;99.90
21255;DHT22;10785;50.674;17.954;2023-11-19T15:15:06;5.00;99.90
21255;DHT22;10785;50.674;17.954;2023-11-19T15:17:39;5.00;99.90
21255;DHT22;10785;50.674;17.954;2023-11-19T15:20:14;5.00;99.90
21255;DHT22;10785;50.674;17.954;2023-11-19T15:22:51;5.10;99.90
21255;DHT22;10785;50.674;17.954;2023-11-19T15:25:27;5.10;99.90
21255;DHT22;10785;50.674;17.954;2023-11-19T15:28:06;5.10;99.90
21255;DHT22;10785;50.674;17.954;2023-11-19T15:30:43;5.10;99.90
21255;DHT22;10785;50.674;17.954;2023-11-19T15:33:20;5.20;99.90
21255;DHT22;10785;50.674;17.954;2023-11-19T15:35:56;5.20;99.90
21255;DHT22;10785;50.674;17.954;2023-11-19T15:38:34;5.30;99.90
21255;DHT22;10785;50.674;17.954;2023-11-19T15:41:12;5.30;99.90
21255;DHT22;10785;50.674;17.954;2023-11-19T15:43:48;5.30;99.90
21255;DHT22;10785;50.674;17.954;2023-11-19T15:46:30;5.30;99.90
21255;DHT22;10785;50.674;17.954;2023-11-19T15:49:03;5.20;99.90
21255;DHT22;10785;50.674;17.954;2023-11-19T15:51:36;5.20;99.90
21255;DHT22;10785;50.674;17.954;2023-11-19T15:54:07;5.20;99.90
21255;DHT22;10785;50.674;17.954;2023-11-19T15:56:41;5.10;99.90
21255;DHT22;10785;50.674;17.954;2023-11-19T15:59:25;5.20;99.90
21255;DHT22;10785;50.674;17.954;2023-11-19T16:01:56;5.20;99.90
21255;DHT22;10785;50.674;17.954;2023-11-19T16:04:31;5.20;99.90
21255;DHT22;10785;50.674;17.954;2023-11-19T16:07:09;5.30;99.90
21255;DHT22;10785;50.674;17.954;2023-11-19T16:09:54;5.30;99.90
21255;DHT22;10785;50.674;17.954;2023-11-19T16:12:56;5.40;99.90
21255;DHT22;10785;50.674;17.954;2023-11-19T16:15:50;5.50;99.90
21255;DHT22;10785;50.674;17.954;2023-11-19T16:18:28;5.60;99.90
21255;DHT22;10785;50.674;17.954;2023-11-19T16:21:07;5.70;99.90
21255;DHT22;10785;50.674;17.954;2023-11-19T16:23:49;5.70;99.90
21255;DHT22;10785;50.674;17.954;2023-11-19T16:26:23;5.80;99.90
21255;DHT22;10785;50.674;17.954;2023-11-19T16:28:53;5.90;99.90
21255;DHT22;10785;50.674;17.954;2023-11-19T16:31:24;6.00;99.90
21255;DHT22;10785;50.674;17.954;2023-11-19T16:33:59;6.10;99.90
21255;DHT22;10785;50.674;17.954;2023-11-19T16:36:29;6.20;99.90
21255;DHT22;10785;50.674;17.954;2023-11-19T16:38:59;6.30;99.90
21255;DHT22;10785;50.674;17.954;2023-11-19T16:41:31;6.40;99.90
21255;DHT22;10785;50.674;17.954;2023-11-19T16:44:10;6.50;99.90
21255;DHT22;10785;50.674;17.954;2023-11-19T16:46:41;6.60;99.90
21255;DHT22;10785;50.674;17.954;2023-11-19T16:49:11;6.60;99.90
21255;DHT22;10785;50.674;17.954;2023-11-19T16:51:44;6.60;99.90
21255;DHT22;10785;50.674;17.954;2023-11-19T16:54:14;6.80;99.90
21255;DHT22;10785;50.674;17.954;2023-11-19T16:56:44;6.90;99.90
21255;DHT22;10785;50.674;17.954;2023-11-19T16:59:14;7.00;99.90